sensor_id;sensor_type;location;lat;lon;timestamp;P1;durP1;ratioP1;P2;durP2;ratioP2
14984;SDS011;7588;62.368;25.902;2023-03-29T00:00:25;5.03;;;4.20;;
14984;SDS011;7588;62.368;25.902;2023-03-29T00:02:51;7.17;;;4.10;;
14984;SDS011;7588;62.368;25.902;2023-03-29T00:05:20;4.40;;;4.00;;
14984;SDS011;7588;62.368;25.902;2023-03-29T00:07:47;4.37;;;3.93;;
14984;SDS011;7588;62.368;25.902;2023-03-29T00:10:18;4.60;;;4.20;;
14984;SDS011;7588;62.368;25.902;2023-03-29T00:12:48;4.30;;;4.00;;
14984;SDS011;7588;62.368;25.902;2023-03-29T00:15:16;4.30;;;4.00;;
14984;SDS011;7588;62.368;25.902;2023-03-29T00:17:42;5.63;;;4.23;;
14984;SDS011;7588;62.368;25.902;2023-03-29T00:20:07;4.03;;;3.73;;
14984;SDS011;7588;62.368;25.902;2023-03-29T00:22:35;4.63;;;4.07;;
14984;SDS011;7588;62.368;25.902;2023-03-29T00:25:01;5.30;;;4.83;;
14984;SDS011;7588;62.368;25.902;2023-03-29T00:27:27;4.87;;;4.47;;
14984;SDS011;7588;62.368;25.902;2023-03-29T00:29:53;4.90;;;4.40;;
14984;SDS011;7588;62.368;25.902;2023-03-29T00:32:20;4.37;;;4.07;;
14984;SDS011;7588;62.368;25.902;2023-03-29T00:34:46;4.90;;;4.50;;
14984;SDS011;7588;62.368;25.902;2023-03-29T00:37:15;5.13;;;4.80;;
14984;SDS011;7588;62.368;25.902;2023-03-29T00:39:44;4.70;;;4.30;;
14984;SDS011;7588;62.368;25.902;2023-03-29T00:42:11;4.70;;;4.30;;
14984;SDS011;7588;62.368;25.902;2023-03-29T00:44:52;3.77;;;3.57;;
14984;SDS011;7588;62.368;25.902;2023-03-29T00:47:42;4.77;;;4.50;;
14984;SDS011;7588;62.368;25.902;2023-03-29T00:50:14;5.53;;;5.10;;
14984;SDS011;7588;62.368;25.902;2023-03-29T00:52:52;4.37;;;3.97;;
14984;SDS011;7588;62.368;25.902;2023-03-29T00:55:24;5.20;;;4.43;;
14984;SDS011;7588;62.368;25.902;2023-03-29T00:57:54;3.60;;;3.40;;
14984;SDS011;7588;62.368;25.902;2023-03-29T01:00:23;4.73;;;4.43;;
14984;SDS011;7588;62.368;25.902;2023-03-29T01:02:56;4.93;;;4.60;;
14984;SDS011;7588;62.368;25.902;2023-03-29T01:05:44;5.00;;;4.70;;
14984;SDS011;7588;62.368;25.902;2023-03-29T01:08:13;4.20;;;3.90;;
14984;SDS011;7588;62.368;25.902;2023-03-29T01:10:49;5.43;;;5.00;;
14984;SDS011;7588;62.368;25.902;2023-03-29T01:13:27;5.63;;;4.23;;
14984;SDS011;7588;62.368;25.902;2023-03-29T01:16:18;5.17;;;4.83;;
14984;SDS011;7588;62.368;25.902;2023-03-29T01:18:46;4.23;;;3.90;;
14984;SDS011;7588;62.368;25.902;2023-03-29T01:21:19;5.47;;;4.97;;
14984;SDS011;7588;62.368;25.902;2023-03-29T01:31:33;4.60;;;4.33;;
14984;SDS011;7588;62.368;25.902;2023-03-29T01:34:09;6.27;;;5.67;;
14984;SDS011;7588;62.368;25.902;2023-03-29T01:36:43;4.77;;;4.47;;
14984;SDS011;7588;62.368;25.902;2023-03-29T01:39:18;6.80;;;5.03;;
14984;SDS011;7588;62.368;25.902;2023-03-29T01:44:57;4.60;;;4.20;;
14984;SDS011;7588;62.368;25.902;2023-03-29T01:47:22;5.30;;;4.63;;
14984;SDS011;7588;62.368;25.902;2023-03-29T01:50:09;4.87;;;4.53;;
14984;SDS011;7588;62.368;25.902;2023-03-29T01:52:42;6.30;;;5.80;;
14984;SDS011;7588;62.368;25.902;2023-03-29T01:55:24;3.50;;;3.30;;
14984;SDS011;7588;62.368;25.902;2023-03-29T01:57:52;4.27;;;3.97;;
14984;SDS011;7588;62.368;25.902;2023-03-29T02:00:23;4.13;;;3.77;;
14984;SDS011;7588;62.368;25.902;2023-03-29T02:02:52;5.30;;;4.80;;
14984;SDS011;7588;62.368;25.902;2023-03-29T02:05:24;5.00;;;4.57;;
14984;SDS011;7588;62.368;25.902;2023-03-29T02:07:52;3.87;;;3.57;;
14984;SDS011;7588;62.368;25.902;2023-03-29T02:10:20;4.17;;;3.77;;
14984;SDS011;7588;62.368;25.902;2023-03-29T02:12:47;4.47;;;4.17;;
14984;SDS011;7588;62.368;25.902;2023-03-29T02:15:15;4.90;;;4.43;;
14984;SDS011;7588;62.368;25.902;2023-03-29T02:17:44;3.70;;;3.40;;
14984;SDS011;7588;62.368;25.902;2023-03-29T02:23:03;4.63;;;4.33;;
14984;SDS011;7588;62.368;25.902;2023-03-29T02:25:51;5.73;;;5.07;;
14984;SDS011;7588;62.368;25.902;2023-03-29T02:28:18;4.53;;;4.23;;
14984;SDS011;7588;62.368;25.902;2023-03-29T02:33:22;5.27;;;4.90;;
14984;SDS011;7588;62.368;25.902;2023-03-29T02:35:57;5.60;;;4.53;;
14984;SDS011;7588;62.368;25.902;2023-03-29T02:38:28;5.97;;;4.83;;
14984;SDS011;7588;62.368;25.902;2023-03-29T02:40:55;5.03;;;4.73;;
14984;SDS011;7588;62.368;25.902;2023-03-29T02:43:23;3.83;;;3.63;;
14984;SDS011;7588;62.368;25.902;2023-03-29T02:45:50;5.10;;;4.70;;
14984;SDS011;7588;62.368;25.902;2023-03-29T02:48:17;4.40;;;4.00;;
14984;SDS011;7588;62.368;25.902;2023-03-29T02:50:46;4.50;;;4.20;;
14984;SDS011;7588;62.368;25.902;2023-03-29T02:53:15;5.43;;;5.13;;
14984;SDS011;7588;62.368;25.902;2023-03-29T02:55:46;4.43;;;4.03;;
14984;SDS011;7588;62.368;25.902;2023-03-29T02:58:12;4.13;;;3.83;;
14984;SDS011;7588;62.368;25.902;2023-03-29T03:00:40;4.13;;;3.80;;
14984;SDS011;7588;62.368;25.902;2023-03-29T03:03:09;4.37;;;4.07;;
14984;SDS011;7588;62.368;25.902;2023-03-29T03:05:37;4.20;;;3.80;;
14984;SDS011;7588;62.368;25.902;2023-03-29T03:08:03;5.53;;;5.13;;
14984;SDS011;7588;62.368;25.902;2023-03-29T03:10:31;4.40;;;4.10;;
14984;SDS011;7588;62.368;25.902;2023-03-29T03:12:58;4.30;;;3.77;;
14984;SDS011;7588;62.368;25.902;2023-03-29T03:15:25;4.83;;;4.43;;
14984;SDS011;7588;62.368;25.902;2023-03-29T03:17:51;4.10;;;3.80;;
14984;SDS011;7588;62.368;25.902;2023-03-29T03:20:17;4.67;;;4.40;;
14984;SDS011;7588;62.368;25.902;2023-03-29T03:22:46;4.20;;;4.00;;
14984;SDS011;7588;62.368;25.902;2023-03-29T03:25:14;4.63;;;4.23;;
14984;SDS011;7588;62.368;25.902;2023-03-29T03:27:41;5.73;;;5.33;;
14984;SDS011;7588;62.368;25.902;2023-03-29T03:30:07;5.50;;;3.73;;
14984;SDS011;7588;62.368;25.902;2023-03-29T03:32:33;4.83;;;4.53;;
14984;SDS011;7588;62.368;25.902;2023-03-29T03:35:00;5.23;;;4.70;;
14984;SDS011;7588;62.368;25.902;2023-03-29T03:37:26;6.00;;;5.47;;
14984;SDS011;7588;62.368;25.902;2023-03-29T03:39:53;5.00;;;4.63;;
14984;SDS011;7588;62.368;25.902;2023-03-29T03:42:18;5.47;;;4.97;;
14984;SDS011;7588;62.368;25.902;2023-03-29T03:44:44;4.90;;;4.60;;
14984;SDS011;7588;62.368;25.902;2023-03-29T03:47:10;5.00;;;4.70;;
14984;SDS011;7588;62.368;25.902;2023-03-29T03:49:37;4.90;;;4.40;;
14984;SDS011;7588;62.368;25.902;2023-03-29T03:52:03;6.93;;;4.80;;
14984;SDS011;7588;62.368;25.902;2023-03-29T03:54:29;4.30;;;4.00;;
14984;SDS011;7588;62.368;25.902;2023-03-29T03:56:56;5.03;;;4.70;;
14984;SDS011;7588;62.368;25.902;2023-03-29T03:59:22;4.10;;;3.80;;
14984;SDS011;7588;62.368;25.902;2023-03-29T04:01:47;5.97;;;4.57;;
14984;SDS011;7588;62.368;25.902;2023-03-29T04:04:13;5.27;;;4.87;;
14984;SDS011;7588;62.368;25.902;2023-03-29T04:06:40;7.70;;;4.90;;
14984;SDS011;7588;62.368;25.902;2023-03-29T04:09:08;5.70;;;5.20;;
14984;SDS011;7588;62.368;25.902;2023-03-29T04:11:34;5.40;;;5.00;;
14984;SDS011;7588;62.368;25.902;2023-03-29T04:14:00;4.93;;;4.33;;
14984;SDS011;7588;62.368;25.902;2023-03-29T04:16:26;5.03;;;4.73;;
14984;SDS011;7588;62.368;25.902;2023-03-29T04:18:52;5.10;;;4.70;;
14984;SDS011;7588;62.368;25.902;2023-03-29T04:21:18;4.83;;;4.50;;
14984;SDS011;7588;62.368;25.902;2023-03-29T04:23:44;5.43;;;5.00;;
14984;SDS011;7588;62.368;25.902;2023-03-29T04:26:12;5.13;;;4.70;;
14984;SDS011;7588;62.368;25.902;2023-03-29T04:28:39;4.57;;;4.17;;
14984;SDS011;7588;62.368;25.902;2023-03-29T04:31:09;4.87;;;4.57;;
14984;SDS011;7588;62.368;25.902;2023-03-29T04:33:37;4.80;;;4.00;;
14984;SDS011;7588;62.368;25.902;2023-03-29T04:36:03;5.33;;;4.83;;
14984;SDS011;7588;62.368;25.902;2023-03-29T04:38:30;5.70;;;4.60;;
14984;SDS011;7588;62.368;25.902;2023-03-29T04:41:00;5.60;;;5.10;;
14984;SDS011;7588;62.368;25.902;2023-03-29T04:43:27;4.20;;;3.57;;
14984;SDS011;7588;62.368;25.902;2023-03-29T04:45:54;12.17;;;9.67;;
14984;SDS011;7588;62.368;25.902;2023-03-29T04:48:20;12.33;;;10.03;;
14984;SDS011;7588;62.368;25.902;2023-03-29T04:50:46;23.97;;;17.87;;
14984;SDS011;7588;62.368;25.902;2023-03-29T04:53:12;18.07;;;13.80;;
14984;SDS011;7588;62.368;25.902;2023-03-29T04:55:38;5.07;;;4.57;;
14984;SDS011;7588;62.368;25.902;2023-03-29T04:58:03;6.30;;;5.60;;
14984;SDS011;7588;62.368;25.902;2023-03-29T05:00:29;4.60;;;3.97;;
14984;SDS011;7588;62.368;25.902;2023-03-29T05:02:55;5.27;;;4.77;;
14984;SDS011;7588;62.368;25.902;2023-03-29T05:05:21;3.77;;;3.47;;
14984;SDS011;7588;62.368;25.902;2023-03-29T05:07:48;4.47;;;4.07;;
14984;SDS011;7588;62.368;25.902;2023-03-29T05:10:14;5.10;;;4.60;;
14984;SDS011;7588;62.368;25.902;2023-03-29T05:12:40;5.10;;;4.13;;
14984;SDS011;7588;62.368;25.902;2023-03-29T05:15:06;4.67;;;4.33;;
14984;SDS011;7588;62.368;25.902;2023-03-29T05:17:33;3.33;;;3.10;;
14984;SDS011;7588;62.368;25.902;2023-03-29T05:19:59;5.50;;;4.90;;
14984;SDS011;7588;62.368;25.902;2023-03-29T05:22:25;3.83;;;3.53;;
14984;SDS011;7588;62.368;25.902;2023-03-29T05:24:52;5.43;;;4.90;;
14984;SDS011;7588;62.368;25.902;2023-03-29T05:27:18;4.57;;;4.07;;
14984;SDS011;7588;62.368;25.902;2023-03-29T05:29:47;3.47;;;3.17;;
14984;SDS011;7588;62.368;25.902;2023-03-29T05:32:13;4.03;;;3.73;;
14984;SDS011;7588;62.368;25.902;2023-03-29T05:34:38;5.00;;;4.50;;
14984;SDS011;7588;62.368;25.902;2023-03-29T05:37:04;3.93;;;3.63;;
14984;SDS011;7588;62.368;25.902;2023-03-29T05:39:30;4.03;;;3.67;;
14984;SDS011;7588;62.368;25.902;2023-03-29T05:41:57;4.00;;;3.60;;
14984;SDS011;7588;62.368;25.902;2023-03-29T05:44:24;3.90;;;3.50;;
14984;SDS011;7588;62.368;25.902;2023-03-29T05:46:49;4.40;;;3.77;;
14984;SDS011;7588;62.368;25.902;2023-03-29T05:49:15;4.20;;;3.63;;
14984;SDS011;7588;62.368;25.902;2023-03-29T05:51:41;5.77;;;3.83;;
14984;SDS011;7588;62.368;25.902;2023-03-29T05:54:09;4.03;;;3.83;;
14984;SDS011;7588;62.368;25.902;2023-03-29T05:56:36;4.90;;;4.50;;
14984;SDS011;7588;62.368;25.902;2023-03-29T05:59:02;4.57;;;4.17;;
14984;SDS011;7588;62.368;25.902;2023-03-29T06:01:27;4.57;;;4.27;;
14984;SDS011;7588;62.368;25.902;2023-03-29T06:03:54;7.50;;;4.30;;
14984;SDS011;7588;62.368;25.902;2023-03-29T06:06:21;4.10;;;3.70;;
14984;SDS011;7588;62.368;25.902;2023-03-29T06:08:46;3.67;;;3.47;;
14984;SDS011;7588;62.368;25.902;2023-03-29T06:11:13;3.93;;;3.63;;
14984;SDS011;7588;62.368;25.902;2023-03-29T06:13:40;4.77;;;4.37;;
14984;SDS011;7588;62.368;25.902;2023-03-29T06:16:06;5.10;;;4.63;;
14984;SDS011;7588;62.368;25.902;2023-03-29T06:18:33;4.53;;;4.13;;
14984;SDS011;7588;62.368;25.902;2023-03-29T06:20:59;4.20;;;3.80;;
14984;SDS011;7588;62.368;25.902;2023-03-29T06:23:28;4.53;;;4.20;;
14984;SDS011;7588;62.368;25.902;2023-03-29T06:25:55;3.53;;;3.23;;
14984;SDS011;7588;62.368;25.902;2023-03-29T06:28:21;3.70;;;3.40;;
14984;SDS011;7588;62.368;25.902;2023-03-29T06:30:48;4.30;;;3.97;;
14984;SDS011;7588;62.368;25.902;2023-03-29T06:33:14;11.90;;;3.47;;
14984;SDS011;7588;62.368;25.902;2023-03-29T06:35:44;4.53;;;3.83;;
14984;SDS011;7588;62.368;25.902;2023-03-29T06:38:11;3.60;;;3.40;;
14984;SDS011;7588;62.368;25.902;2023-03-29T06:40:37;4.13;;;3.80;;
14984;SDS011;7588;62.368;25.902;2023-03-29T06:43:04;3.13;;;2.77;;
14984;SDS011;7588;62.368;25.902;2023-03-29T06:45:34;3.73;;;3.40;;
14984;SDS011;7588;62.368;25.902;2023-03-29T06:48:01;3.90;;;3.67;;
14984;SDS011;7588;62.368;25.902;2023-03-29T06:50:28;3.93;;;3.53;;
14984;SDS011;7588;62.368;25.902;2023-03-29T06:52:54;3.60;;;3.30;;
14984;SDS011;7588;62.368;25.902;2023-03-29T06:55:20;4.37;;;3.80;;
14984;SDS011;7588;62.368;25.902;2023-03-29T06:57:47;3.80;;;3.50;;
14984;SDS011;7588;62.368;25.902;2023-03-29T07:00:13;3.57;;;3.37;;
14984;SDS011;7588;62.368;25.902;2023-03-29T07:02:45;3.60;;;3.33;;
14984;SDS011;7588;62.368;25.902;2023-03-29T07:05:13;4.87;;;4.27;;
14984;SDS011;7588;62.368;25.902;2023-03-29T07:07:40;3.23;;;2.90;;
14984;SDS011;7588;62.368;25.902;2023-03-29T07:10:19;2.97;;;2.77;;
14984;SDS011;7588;62.368;25.902;2023-03-29T07:12:49;3.27;;;3.03;;
14984;SDS011;7588;62.368;25.902;2023-03-29T07:15:16;3.23;;;3.03;;
14984;SDS011;7588;62.368;25.902;2023-03-29T07:17:43;3.13;;;2.47;;
14984;SDS011;7588;62.368;25.902;2023-03-29T07:20:08;3.13;;;2.83;;
14984;SDS011;7588;62.368;25.902;2023-03-29T07:22:38;3.43;;;2.53;;
14984;SDS011;7588;62.368;25.902;2023-03-29T07:25:05;2.60;;;2.40;;
14984;SDS011;7588;62.368;25.902;2023-03-29T07:27:36;3.00;;;2.37;;
14984;SDS011;7588;62.368;25.902;2023-03-29T07:30:04;3.13;;;2.43;;
14984;SDS011;7588;62.368;25.902;2023-03-29T07:32:35;2.67;;;2.47;;
14984;SDS011;7588;62.368;25.902;2023-03-29T07:35:03;2.60;;;2.40;;
14984;SDS011;7588;62.368;25.902;2023-03-29T07:37:30;2.60;;;2.50;;
14984;SDS011;7588;62.368;25.902;2023-03-29T07:39:58;2.97;;;2.77;;
14984;SDS011;7588;62.368;25.902;2023-03-29T07:42:25;2.97;;;2.53;;
14984;SDS011;7588;62.368;25.902;2023-03-29T07:44:52;2.50;;;2.30;;
14984;SDS011;7588;62.368;25.902;2023-03-29T07:47:18;3.03;;;2.50;;
14984;SDS011;7588;62.368;25.902;2023-03-29T07:49:44;3.70;;;2.50;;
14984;SDS011;7588;62.368;25.902;2023-03-29T07:52:10;2.90;;;2.70;;
14984;SDS011;7588;62.368;25.902;2023-03-29T07:54:36;2.70;;;2.50;;
14984;SDS011;7588;62.368;25.902;2023-03-29T07:57:02;2.60;;;2.40;;
14984;SDS011;7588;62.368;25.902;2023-03-29T07:59:28;3.00;;;2.80;;
14984;SDS011;7588;62.368;25.902;2023-03-29T08:01:54;2.80;;;2.60;;
14984;SDS011;7588;62.368;25.902;2023-03-29T08:04:20;3.27;;;2.97;;
14984;SDS011;7588;62.368;25.902;2023-03-29T08:06:46;3.17;;;2.90;;
14984;SDS011;7588;62.368;25.902;2023-03-29T08:09:12;3.63;;;3.00;;
14984;SDS011;7588;62.368;25.902;2023-03-29T08:11:38;2.53;;;2.43;;
14984;SDS011;7588;62.368;25.902;2023-03-29T08:14:04;3.87;;;2.70;;
14984;SDS011;7588;62.368;25.902;2023-03-29T08:16:31;3.17;;;2.97;;
14984;SDS011;7588;62.368;25.902;2023-03-29T08:18:57;2.87;;;2.67;;
14984;SDS011;7588;62.368;25.902;2023-03-29T08:21:23;3.57;;;3.27;;
14984;SDS011;7588;62.368;25.902;2023-03-29T08:23:49;3.17;;;2.97;;
14984;SDS011;7588;62.368;25.902;2023-03-29T08:26:15;3.27;;;3.07;;
14984;SDS011;7588;62.368;25.902;2023-03-29T08:28:41;3.65;;;3.35;;
14984;SDS011;7588;62.368;25.902;2023-03-29T08:31:07;9.38;;;8.75;;
14984;SDS011;7588;62.368;25.902;2023-03-29T08:33:34;3.20;;;3.00;;
14984;SDS011;7588;62.368;25.902;2023-03-29T08:36:01;3.87;;;3.47;;
14984;SDS011;7588;62.368;25.902;2023-03-29T08:38:27;2.90;;;2.70;;
14984;SDS011;7588;62.368;25.902;2023-03-29T08:40:53;4.13;;;2.67;;
14984;SDS011;7588;62.368;25.902;2023-03-29T08:43:20;2.97;;;2.77;;
14984;SDS011;7588;62.368;25.902;2023-03-29T08:48:40;3.03;;;2.83;;
14984;SDS011;7588;62.368;25.902;2023-03-29T08:51:26;2.80;;;2.50;;
14984;SDS011;7588;62.368;25.902;2023-03-29T08:56:27;2.80;;;2.60;;
14984;SDS011;7588;62.368;25.902;2023-03-29T08:58:56;3.40;;;3.10;;
14984;SDS011;7588;62.368;25.902;2023-03-29T09:01:23;3.30;;;3.10;;
14984;SDS011;7588;62.368;25.902;2023-03-29T09:04:14;2.90;;;2.70;;
14984;SDS011;7588;62.368;25.902;2023-03-29T09:06:41;3.10;;;2.90;;
14984;SDS011;7588;62.368;25.902;2023-03-29T09:09:13;2.93;;;2.73;;
14984;SDS011;7588;62.368;25.902;2023-03-29T09:15:17;3.27;;;2.97;;
14984;SDS011;7588;62.368;25.902;2023-03-29T09:34:17;3.07;;;2.80;;
14984;SDS011;7588;62.368;25.902;2023-03-29T09:36:52;2.97;;;2.70;;
14984;SDS011;7588;62.368;25.902;2023-03-29T09:39:18;3.07;;;2.77;;
14984;SDS011;7588;62.368;25.902;2023-03-29T09:41:53;3.33;;;2.40;;
14984;SDS011;7588;62.368;25.902;2023-03-29T09:44:28;3.40;;;3.10;;
14984;SDS011;7588;62.368;25.902;2023-03-29T09:47:02;2.80;;;2.60;;
14984;SDS011;7588;62.368;25.902;2023-03-29T09:49:35;3.13;;;2.87;;
14984;SDS011;7588;62.368;25.902;2023-03-29T09:52:05;3.20;;;2.97;;
14984;SDS011;7588;62.368;25.902;2023-03-29T09:54:36;4.00;;;3.20;;
14984;SDS011;7588;62.368;25.902;2023-03-29T09:57:02;3.33;;;3.03;;
14984;SDS011;7588;62.368;25.902;2023-03-29T09:59:28;3.00;;;2.80;;
14984;SDS011;7588;62.368;25.902;2023-03-29T10:02:03;5.63;;;3.00;;
14984;SDS011;7588;62.368;25.902;2023-03-29T10:04:31;3.30;;;3.10;;
14984;SDS011;7588;62.368;25.902;2023-03-29T10:06:57;2.70;;;2.57;;
14984;SDS011;7588;62.368;25.902;2023-03-29T10:09:24;3.23;;;3.00;;
14984;SDS011;7588;62.368;25.902;2023-03-29T10:11:53;2.80;;;2.60;;
14984;SDS011;7588;62.368;25.902;2023-03-29T10:14:29;3.00;;;2.80;;
14984;SDS011;7588;62.368;25.902;2023-03-29T10:16:56;2.83;;;2.57;;
14984;SDS011;7588;62.368;25.902;2023-03-29T10:19:30;2.80;;;2.60;;
14984;SDS011;7588;62.368;25.902;2023-03-29T10:22:18;3.30;;;2.97;;
14984;SDS011;7588;62.368;25.902;2023-03-29T10:24:49;3.33;;;3.03;;
14984;SDS011;7588;62.368;25.902;2023-03-29T10:27:18;3.47;;;3.17;;
14984;SDS011;7588;62.368;25.902;2023-03-29T10:29:47;2.90;;;2.70;;
14984;SDS011;7588;62.368;25.902;2023-03-29T10:34:49;3.10;;;2.90;;
14984;SDS011;7588;62.368;25.902;2023-03-29T10:37:19;3.07;;;2.87;;
14984;SDS011;7588;62.368;25.902;2023-03-29T10:39:45;3.23;;;3.03;;
14984;SDS011;7588;62.368;25.902;2023-03-29T10:42:12;3.33;;;3.13;;
14984;SDS011;7588;62.368;25.902;2023-03-29T10:44:41;3.20;;;3.00;;
14984;SDS011;7588;62.368;25.902;2023-03-29T10:47:17;3.23;;;3.03;;
14984;SDS011;7588;62.368;25.902;2023-03-29T10:49:53;3.30;;;3.10;;
14984;SDS011;7588;62.368;25.902;2023-03-29T10:52:22;3.03;;;2.73;;
14984;SDS011;7588;62.368;25.902;2023-03-29T10:54:49;2.80;;;2.60;;
14984;SDS011;7588;62.368;25.902;2023-03-29T10:57:36;2.70;;;2.50;;
14984;SDS011;7588;62.368;25.902;2023-03-29T11:00:12;3.50;;;3.20;;
14984;SDS011;7588;62.368;25.902;2023-03-29T11:05:29;4.07;;;2.90;;
14984;SDS011;7588;62.368;25.902;2023-03-29T11:08:01;2.87;;;2.67;;
14984;SDS011;7588;62.368;25.902;2023-03-29T11:35:08;3.10;;;2.90;;
14984;SDS011;7588;62.368;25.902;2023-03-29T11:37:45;3.23;;;3.03;;
14984;SDS011;7588;62.368;25.902;2023-03-29T11:43:13;4.07;;;3.17;;
14984;SDS011;7588;62.368;25.902;2023-03-29T11:45:45;3.90;;;3.20;;
14984;SDS011;7588;62.368;25.902;2023-03-29T11:48:27;3.30;;;3.00;;
14984;SDS011;7588;62.368;25.902;2023-03-29T11:50:59;3.40;;;3.20;;
14984;SDS011;7588;62.368;25.902;2023-03-29T11:53:57;2.90;;;2.53;;
14984;SDS011;7588;62.368;25.902;2023-03-29T11:56:25;6.40;;;5.87;;
14984;SDS011;7588;62.368;25.902;2023-03-29T11:58:59;4.43;;;2.93;;
14984;SDS011;7588;62.368;25.902;2023-03-29T12:01:30;2.93;;;2.73;;
14984;SDS011;7588;62.368;25.902;2023-03-29T12:04:02;2.60;;;2.43;;
14984;SDS011;7588;62.368;25.902;2023-03-29T12:06:35;2.93;;;2.73;;
14984;SDS011;7588;62.368;25.902;2023-03-29T12:11:55;2.53;;;2.43;;
14984;SDS011;7588;62.368;25.902;2023-03-29T12:17:18;2.67;;;2.47;;
14984;SDS011;7588;62.368;25.902;2023-03-29T12:19:51;2.87;;;2.67;;
14984;SDS011;7588;62.368;25.902;2023-03-29T12:22:29;2.70;;;2.60;;
14984;SDS011;7588;62.368;25.902;2023-03-29T12:24:56;2.53;;;2.43;;
14984;SDS011;7588;62.368;25.902;2023-03-29T12:27:29;3.30;;;2.77;;
14984;SDS011;7588;62.368;25.902;2023-03-29T12:38:31;2.63;;;2.50;;
14984;SDS011;7588;62.368;25.902;2023-03-29T12:40:58;2.67;;;2.47;;
14984;SDS011;7588;62.368;25.902;2023-03-29T12:48:30;3.03;;;2.80;;
14984;SDS011;7588;62.368;25.902;2023-03-29T12:50:58;3.30;;;2.70;;
14984;SDS011;7588;62.368;25.902;2023-03-29T12:53:26;3.20;;;2.70;;
14984;SDS011;7588;62.368;25.902;2023-03-29T12:56:07;2.73;;;2.53;;
14984;SDS011;7588;62.368;25.902;2023-03-29T12:58:52;2.90;;;2.70;;
14984;SDS011;7588;62.368;25.902;2023-03-29T13:04:16;2.80;;;2.60;;
14984;SDS011;7588;62.368;25.902;2023-03-29T13:09:20;2.63;;;2.43;;
14984;SDS011;7588;62.368;25.902;2023-03-29T13:11:54;3.03;;;2.83;;
14984;SDS011;7588;62.368;25.902;2023-03-29T13:14:23;3.20;;;2.90;;
14984;SDS011;7588;62.368;25.902;2023-03-29T13:16:59;3.30;;;3.00;;
14984;SDS011;7588;62.368;25.902;2023-03-29T13:19:33;3.13;;;2.93;;
14984;SDS011;7588;62.368;25.902;2023-03-29T13:30:31;2.87;;;2.63;;
14984;SDS011;7588;62.368;25.902;2023-03-29T13:38:42;2.60;;;2.40;;
14984;SDS011;7588;62.368;25.902;2023-03-29T13:41:27;3.00;;;2.80;;
14984;SDS011;7588;62.368;25.902;2023-03-29T13:43:55;2.83;;;2.63;;
14984;SDS011;7588;62.368;25.902;2023-03-29T13:49:20;2.90;;;2.70;;
14984;SDS011;7588;62.368;25.902;2023-03-29T13:54:25;2.80;;;2.50;;
14984;SDS011;7588;62.368;25.902;2023-03-29T14:05:07;3.10;;;2.90;;
14984;SDS011;7588;62.368;25.902;2023-03-29T14:07:37;2.63;;;2.47;;
14984;SDS011;7588;62.368;25.902;2023-03-29T14:10:10;2.40;;;2.30;;
14984;SDS011;7588;62.368;25.902;2023-03-29T14:12:41;2.90;;;2.70;;
14984;SDS011;7588;62.368;25.902;2023-03-29T14:15:17;3.43;;;2.60;;
14984;SDS011;7588;62.368;25.902;2023-03-29T14:17:48;3.07;;;2.87;;
14984;SDS011;7588;62.368;25.902;2023-03-29T14:20:16;2.80;;;2.60;;
14984;SDS011;7588;62.368;25.902;2023-03-29T14:22:43;3.27;;;2.70;;
14984;SDS011;7588;62.368;25.902;2023-03-29T14:25:13;3.37;;;3.13;;
14984;SDS011;7588;62.368;25.902;2023-03-29T14:27:41;3.83;;;3.30;;
14984;SDS011;7588;62.368;25.902;2023-03-29T14:32:44;2.93;;;2.73;;
14984;SDS011;7588;62.368;25.902;2023-03-29T14:35:09;3.23;;;3.03;;
14984;SDS011;7588;62.368;25.902;2023-03-29T14:37:36;3.00;;;2.80;;
14984;SDS011;7588;62.368;25.902;2023-03-29T14:40:02;2.97;;;2.67;;
14984;SDS011;7588;62.368;25.902;2023-03-29T14:42:32;3.00;;;2.80;;
14984;SDS011;7588;62.368;25.902;2023-03-29T14:45:02;2.73;;;2.53;;
14984;SDS011;7588;62.368;25.902;2023-03-29T14:47:30;2.90;;;2.70;;
14984;SDS011;7588;62.368;25.902;2023-03-29T14:49:57;2.70;;;2.50;;
14984;SDS011;7588;62.368;25.902;2023-03-29T14:52:28;2.47;;;2.27;;
14984;SDS011;7588;62.368;25.902;2023-03-29T14:54:57;2.63;;;2.43;;
14984;SDS011;7588;62.368;25.902;2023-03-29T14:57:26;3.07;;;2.80;;
14984;SDS011;7588;62.368;25.902;2023-03-29T15:00:01;2.70;;;2.50;;
14984;SDS011;7588;62.368;25.902;2023-03-29T15:02:46;2.63;;;2.43;;
14984;SDS011;7588;62.368;25.902;2023-03-29T15:05:24;2.50;;;2.30;;
14984;SDS011;7588;62.368;25.902;2023-03-29T15:08:01;2.70;;;2.50;;
14984;SDS011;7588;62.368;25.902;2023-03-29T15:10:29;2.60;;;2.40;;
14984;SDS011;7588;62.368;25.902;2023-03-29T15:12:57;2.70;;;2.50;;
14984;SDS011;7588;62.368;25.902;2023-03-29T15:15:25;2.43;;;2.33;;
14984;SDS011;7588;62.368;25.902;2023-03-29T15:17:51;2.50;;;2.40;;
14984;SDS011;7588;62.368;25.902;2023-03-29T15:22:51;3.03;;;2.83;;
14984;SDS011;7588;62.368;25.902;2023-03-29T15:25:17;2.83;;;2.67;;
14984;SDS011;7588;62.368;25.902;2023-03-29T15:27:46;2.87;;;2.73;;
14984;SDS011;7588;62.368;25.902;2023-03-29T15:30:15;2.40;;;2.30;;
14984;SDS011;7588;62.368;25.902;2023-03-29T15:32:42;2.97;;;2.77;;
14984;SDS011;7588;62.368;25.902;2023-03-29T15:35:19;2.80;;;2.60;;
14984;SDS011;7588;62.368;25.902;2023-03-29T15:37:47;3.00;;;2.80;;
14984;SDS011;7588;62.368;25.902;2023-03-29T15:40:15;2.70;;;2.60;;
14984;SDS011;7588;62.368;25.902;2023-03-29T15:42:42;2.67;;;2.57;;
14984;SDS011;7588;62.368;25.902;2023-03-29T15:45:15;2.60;;;2.40;;
14984;SDS011;7588;62.368;25.902;2023-03-29T15:47:42;3.43;;;2.90;;
14984;SDS011;7588;62.368;25.902;2023-03-29T15:50:08;2.50;;;2.40;;
14984;SDS011;7588;62.368;25.902;2023-03-29T15:52:34;2.93;;;2.73;;
14984;SDS011;7588;62.368;25.902;2023-03-29T15:55:00;2.60;;;2.50;;
14984;SDS011;7588;62.368;25.902;2023-03-29T15:57:26;2.40;;;2.30;;
14984;SDS011;7588;62.368;25.902;2023-03-29T15:59:53;2.53;;;2.43;;
14984;SDS011;7588;62.368;25.902;2023-03-29T16:02:20;2.73;;;2.53;;
14984;SDS011;7588;62.368;25.902;2023-03-29T16:04:48;3.10;;;2.50;;
14984;SDS011;7588;62.368;25.902;2023-03-29T16:07:15;2.80;;;2.60;;
14984;SDS011;7588;62.368;25.902;2023-03-29T16:09:42;2.90;;;2.70;;
14984;SDS011;7588;62.368;25.902;2023-03-29T16:12:11;2.43;;;2.33;;
14984;SDS011;7588;62.368;25.902;2023-03-29T16:14:37;2.60;;;2.50;;
14984;SDS011;7588;62.368;25.902;2023-03-29T16:17:03;2.87;;;2.77;;
14984;SDS011;7588;62.368;25.902;2023-03-29T16:19:30;2.30;;;2.20;;
14984;SDS011;7588;62.368;25.902;2023-03-29T16:21:58;2.33;;;2.23;;
14984;SDS011;7588;62.368;25.902;2023-03-29T16:24:27;2.37;;;2.23;;
14984;SDS011;7588;62.368;25.902;2023-03-29T16:26:55;2.53;;;2.40;;
14984;SDS011;7588;62.368;25.902;2023-03-29T16:29:22;2.43;;;2.33;;
14984;SDS011;7588;62.368;25.902;2023-03-29T16:31:49;2.80;;;2.60;;
14984;SDS011;7588;62.368;25.902;2023-03-29T16:34:16;2.73;;;2.53;;
14984;SDS011;7588;62.368;25.902;2023-03-29T16:36:43;4.07;;;2.80;;
14984;SDS011;7588;62.368;25.902;2023-03-29T16:39:09;2.70;;;2.50;;
14984;SDS011;7588;62.368;25.902;2023-03-29T16:41:37;2.80;;;2.60;;
14984;SDS011;7588;62.368;25.902;2023-03-29T16:44:03;2.80;;;2.70;;
14984;SDS011;7588;62.368;25.902;2023-03-29T16:46:29;4.53;;;2.67;;
14984;SDS011;7588;62.368;25.902;2023-03-29T16:48:55;3.83;;;2.80;;
14984;SDS011;7588;62.368;25.902;2023-03-29T16:51:24;3.33;;;3.13;;
14984;SDS011;7588;62.368;25.902;2023-03-29T16:53:50;3.10;;;2.90;;
14984;SDS011;7588;62.368;25.902;2023-03-29T16:56:16;3.00;;;2.80;;
14984;SDS011;7588;62.368;25.902;2023-03-29T16:58:43;2.80;;;2.70;;
14984;SDS011;7588;62.368;25.902;2023-03-29T17:01:12;2.90;;;2.80;;
14984;SDS011;7588;62.368;25.902;2023-03-29T17:03:40;4.23;;;2.47;;
14984;SDS011;7588;62.368;25.902;2023-03-29T17:06:07;3.50;;;3.30;;
14984;SDS011;7588;62.368;25.902;2023-03-29T17:08:34;2.83;;;2.63;;
14984;SDS011;7588;62.368;25.902;2023-03-29T17:11:00;2.57;;;2.47;;